Time;durP1;ratioP1;P1;durP2;ratioP2;P2;SDS_P1;SDS_P2;PMS_P1;PMS_P2;Temp;Humidity;BMP_temperature;BMP_pressure;BME280_temperature;BME280_humidity;BME280_pressure;Samples;Min_cycle;Max_cycle;Signal;HPM_P1;HPM_P2
2021/12/29 00:00:48;;;;;;;101.03;31.70;;;-3.40;99.90;;;;;;5015277;28;20661;-72
2021/12/29 00:03:36;;;;;;;95.97;31.63;;;-3.40;99.90;;;;;;5022608;28;20201;-72
2021/12/29 00:06:23;;;;;;;87.40;32.03;;;-3.30;99.90;;;;;;5030208;28;20205;-72
2021/12/29 00:09:11;;;;;;;96.27;29.87;;;-3.30;99.90;;;;;;5023180;28;20213;-72
2021/12/29 00:11:58;;;;;;;88.27;30.90;;;-3.40;99.90;;;;;;5018306;28;20195;-72
2021/12/29 00:14:46;;;;;;;91.43;30.33;;;-3.40;99.90;;;;;;5029429;28;20306;-72
2021/12/29 00:17:35;;;;;;;90.17;31.97;;;-3.40;99.90;;;;;;5035721;28;20738;-72
2021/12/29 00:20:27;;;;;;;90.13;30.63;;;-3.40;99.90;;;;;;5034540;28;20576;-72
2021/12/29 00:23:15;;;;;;;101.03;33.90;;;-3.40;99.90;;;;;;5028818;28;20294;-70
2021/12/29 00:26:02;;;;;;;101.67;34.63;;;-3.40;99.90;;;;;;5025800;28;20198;-70
2021/12/29 00:28:50;;;;;;;104.53;33.83;;;-3.40;99.90;;;;;;5035982;28;20711;-72
2021/12/29 00:31:37;;;;;;;89.13;31.37;;;-3.40;99.90;;;;;;5023066;28;20233;-71
2021/12/29 00:34:26;;;;;;;102.53;33.03;;;-3.40;99.90;;;;;;5034380;28;20295;-71
2021/12/29 00:37:14;;;;;;;94.97;34.23;;;-3.40;99.90;;;;;;5035020;28;20233;-71
2021/12/29 00:40:01;;;;;;;81.80;29.13;;;-3.40;99.90;;;;;;5023190;28;20201;-71
2021/12/29 00:42:49;;;;;;;79.43;28.27;;;-3.40;99.90;;;;;;5028606;28;20221;-71
2021/12/29 00:45:37;;;;;;;91.93;31.50;;;-3.50;99.90;;;;;;5033685;28;20204;-71
2021/12/29 00:48:34;;;;;;;94.23;33.07;;;-3.40;99.90;;;;;;5025766;28;20203;-72
2021/12/29 00:51:24;;;;;;;103.43;36.43;;;-3.40;99.90;;;;;;5030424;28;20202;-71
2021/12/29 00:54:11;;;;;;;108.87;35.97;;;-3.40;99.90;;;;;;5025564;28;20202;-71
2021/12/29 00:56:59;;;;;;;113.60;36.87;;;-3.30;99.90;;;;;;5016355;28;20268;-72
2021/12/29 00:59:46;;;;;;;105.67;35.07;;;-3.30;99.90;;;;;;5030498;28;20277;-71
2021/12/29 01:02:34;;;;;;;97.00;34.23;;;-3.20;99.90;;;;;;5029950;28;20201;-71
2021/12/29 01:05:21;;;;;;;102.40;35.13;;;-3.20;99.90;;;;;;5027602;28;20201;-71
2021/12/29 01:08:11;;;;;;;96.33;34.47;;;-3.20;99.90;;;;;;5017085;28;20292;-71
2021/12/29 01:10:59;;;;;;;96.90;32.30;;;-3.20;99.90;;;;;;5018690;28;21041;-72
2021/12/29 01:13:49;;;;;;;96.60;34.17;;;-3.20;99.90;;;;;;5025091;28;20201;-72
2021/12/29 01:16:39;;;;;;;98.63;32.03;;;-3.20;99.90;;;;;;5025614;28;20292;-72
2021/12/29 01:19:28;;;;;;;97.23;33.87;;;-3.20;99.90;;;;;;5022391;28;20202;-71
2021/12/29 01:22:16;;;;;;;95.70;34.87;;;-3.20;99.90;;;;;;5025504;28;20569;-71
2021/12/29 01:25:06;;;;;;;97.60;35.30;;;-3.20;99.90;;;;;;5021562;28;20680;-71
2021/12/29 01:27:54;;;;;;;97.50;34.83;;;-3.20;99.90;;;;;;5013615;28;20560;-71
2021/12/29 01:30:42;;;;;;;91.50;34.63;;;-3.10;99.90;;;;;;5023870;28;20340;-71
2021/12/29 01:33:30;;;;;;;102.57;35.67;;;-3.10;99.90;;;;;;5022398;28;20692;-71
2021/12/29 01:36:17;;;;;;;104.53;34.50;;;-3.10;99.90;;;;;;5024495;28;20229;-72
2021/12/29 01:39:06;;;;;;;91.07;33.43;;;-3.20;99.90;;;;;;5020158;28;20674;-71
2021/12/29 01:41:56;;;;;;;94.43;34.13;;;-3.10;99.90;;;;;;5018104;28;20202;-71
2021/12/29 01:44:44;;;;;;;89.77;31.43;;;-3.10;99.90;;;;;;5024905;28;20198;-71
2021/12/29 01:47:32;;;;;;;81.10;30.23;;;-3.20;99.90;;;;;;5023070;28;20203;-71
2021/12/29 01:50:20;;;;;;;88.40;31.60;;;-3.10;99.90;;;;;;5024337;28;20292;-71
2021/12/29 01:53:09;;;;;;;87.63;32.13;;;-3.00;99.90;;;;;;5020320;28;20217;-71
2021/12/29 01:55:57;;;;;;;82.60;30.60;;;-3.00;99.90;;;;;;5013547;28;20221;-72
2021/12/29 01:58:45;;;;;;;86.27;30.20;;;-2.90;99.90;;;;;;5023220;28;20201;-72
2021/12/29 02:01:33;;;;;;;86.13;30.87;;;-2.90;99.90;;;;;;5017610;28;20328;-72
2021/12/29 02:04:21;;;;;;;88.63;31.50;;;-2.90;99.90;;;;;;5023832;28;20202;-72
2021/12/29 02:07:08;;;;;;;77.97;29.50;;;-2.80;99.90;;;;;;5021559;28;20197;-72
2021/12/29 02:09:56;;;;;;;92.53;31.27;;;-2.80;99.90;;;;;;5018791;28;20217;-71
2021/12/29 02:12:44;;;;;;;83.67;30.50;;;-2.70;99.90;;;;;;5028240;28;20198;-71
2021/12/29 02:15:33;;;;;;;85.47;30.27;;;-2.70;99.90;;;;;;5030110;28;20244;-72
2021/12/29 02:18:21;;;;;;;91.57;32.57;;;-2.70;99.90;;;;;;5030024;28;20198;-72
2021/12/29 02:21:10;;;;;;;92.47;32.00;;;-2.60;99.90;;;;;;5029950;28;20202;-71
2021/12/29 02:24:17;;;;;;;82.57;31.00;;;-2.60;99.90;;;;;;5024462;28;20197;-72
2021/12/29 02:27:05;;;;;;;80.13;30.33;;;-2.50;99.90;;;;;;5021800;28;20582;-72
2021/12/29 02:29:53;;;;;;;92.63;33.87;;;-2.40;99.90;;;;;;5015564;28;20700;-71
2021/12/29 02:32:40;;;;;;;93.77;31.90;;;-2.40;99.90;;;;;;5027639;28;20571;-71
2021/12/29 02:35:28;;;;;;;103.07;36.63;;;-2.40;99.90;;;;;;5022524;28;20230;-71
2021/12/29 02:38:25;;;;;;;104.37;35.03;;;-2.40;99.90;;;;;;5023562;28;20209;-72
2021/12/29 02:41:12;;;;;;;129.07;43.97;;;-2.30;99.90;;;;;;5008829;28;20194;-71
2021/12/29 02:44:01;;;;;;;148.93;47.03;;;-2.40;99.90;;;;;;5017407;28;20239;-71
2021/12/29 02:46:49;;;;;;;124.20;42.20;;;-2.30;99.90;;;;;;5027352;28;20194;-72
2021/12/29 02:49:37;;;;;;;115.93;41.43;;;-2.30;99.90;;;;;;5026590;28;20198;-72
2021/12/29 02:52:25;;;;;;;127.27;42.83;;;-2.30;99.90;;;;;;5026882;28;20887;-72
2021/12/29 02:55:14;;;;;;;124.33;42.53;;;-2.30;99.90;;;;;;5022045;28;20289;-72
2021/12/29 02:58:01;;;;;;;188.20;55.70;;;-2.20;99.90;;;;;;5016960;28;20664;-72
2021/12/29 03:00:49;;;;;;;189.20;59.23;;;-2.20;99.90;;;;;;5027203;28;20217;-72
2021/12/29 03:03:37;;;;;;;199.17;64.07;;;-2.20;99.90;;;;;;5026739;28;20557;-72
2021/12/29 03:06:25;;;;;;;183.00;58.07;;;-2.20;99.90;;;;;;5019906;28;20202;-72
2021/12/29 03:09:13;;;;;;;124.37;44.33;;;-2.20;99.90;;;;;;5024543;28;20707;-71
2021/12/29 03:12:02;;;;;;;127.70;44.63;;;-2.20;99.90;;;;;;5015722;28;20610;-72
2021/12/29 03:14:52;;;;;;;119.57;42.70;;;-2.20;99.90;;;;;;5027245;28;20692;-71
2021/12/29 03:17:39;;;;;;;127.50;41.90;;;-2.20;99.90;;;;;;5025484;28;20347;-72
2021/12/29 03:20:27;;;;;;;112.77;38.30;;;-2.20;99.90;;;;;;5022924;28;20263;-72
2021/12/29 03:23:15;;;;;;;113.93;41.07;;;-2.20;99.90;;;;;;5023809;28;20202;-72
2021/12/29 03:26:03;;;;;;;90.87;34.07;;;-2.20;99.90;;;;;;5028566;28;20201;-72
2021/12/29 03:28:53;;;;;;;72.87;28.17;;;-2.20;99.90;;;;;;5029162;28;20198;-71
2021/12/29 03:31:42;;;;;;;108.87;39.33;;;-2.10;99.90;;;;;;5028589;28;20282;-71
2021/12/29 03:34:29;;;;;;;99.23;36.10;;;-2.10;99.90;;;;;;5028640;28;20248;-72
2021/12/29 03:37:17;;;;;;;97.43;35.47;;;-2.10;99.90;;;;;;5027199;28;20228;-72
2021/12/29 03:40:05;;;;;;;93.53;34.17;;;-2.10;99.90;;;;;;5013361;28;20563;-72
2021/12/29 03:42:53;;;;;;;88.43;33.33;;;-2.00;99.90;;;;;;5016843;28;20202;-72
2021/12/29 03:45:44;;;;;;;88.20;34.03;;;-2.00;99.90;;;;;;5028717;28;20190;-72
2021/12/29 03:48:33;;;;;;;86.77;30.73;;;-2.00;99.90;;;;;;5028194;28;21068;-72
2021/12/29 03:51:21;;;;;;;108.47;36.73;;;-2.00;99.90;;;;;;5028736;28;20205;-71
2021/12/29 03:54:08;;;;;;;92.53;33.53;;;-1.90;99.90;;;;;;5021069;28;20320;-72
2021/12/29 03:57:00;;;;;;;114.40;36.33;;;-1.90;99.90;;;;;;5027128;28;20205;-72
2021/12/29 03:59:48;;;;;;;103.43;34.47;;;-1.90;99.90;;;;;;5019653;28;20285;-71
2021/12/29 04:02:37;;;;;;;104.23;33.67;;;-1.90;99.90;;;;;;5028792;28;20198;-71
2021/12/29 04:05:25;;;;;;;85.43;30.20;;;-1.90;99.90;;;;;;5029040;28;20213;-72
2021/12/29 04:08:12;;;;;;;82.03;28.97;;;-1.90;99.90;;;;;;5022095;28;20649;-72
2021/12/29 04:10:59;;;;;;;80.20;30.47;;;-1.80;99.90;;;;;;5018925;28;20232;-71
2021/12/29 04:13:47;;;;;;;95.50;31.60;;;-1.80;99.90;;;;;;5028371;28;20206;-72
2021/12/29 04:16:37;;;;;;;85.90;30.50;;;-1.80;99.90;;;;;;5019554;28;20259;-71
2021/12/29 04:19:40;;;;;;;108.73;34.27;;;-1.80;99.90;;;;;;5023695;28;20210;-72
2021/12/29 04:22:28;;;;;;;95.43;32.57;;;-1.80;99.90;;;;;;5020091;28;20195;-71
2021/12/29 04:25:15;;;;;;;94.77;32.07;;;-1.80;99.90;;;;;;5023274;28;20206;-72
2021/12/29 04:28:03;;;;;;;96.87;32.73;;;-1.70;99.90;;;;;;5017251;28;20202;-72
2021/12/29 04:30:52;;;;;;;101.00;32.50;;;-1.70;99.90;;;;;;5014783;28;20237;-71
2021/12/29 04:33:40;;;;;;;100.97;33.70;;;-1.70;99.90;;;;;;5028418;28;20237;-71
2021/12/29 04:36:29;;;;;;;92.57;34.37;;;-1.70;99.90;;;;;;5023559;28;20218;-71
2021/12/29 04:39:16;;;;;;;97.77;35.77;;;-1.70;99.90;;;;;;5029265;28;20232;-72
2021/12/29 04:42:04;;;;;;;91.80;33.37;;;-1.70;99.90;;;;;;5012530;28;20208;-72
2021/12/29 04:44:52;;;;;;;84.10;31.73;;;-1.70;99.90;;;;;;5026479;28;20197;-71
2021/12/29 04:47:42;;;;;;;81.23;30.10;;;-1.70;99.90;;;;;;5026271;28;20206;-71
2021/12/29 04:50:36;;;;;;;81.53;31.37;;;-1.70;99.90;;;;;;5023935;28;20708;-71
2021/12/29 04:53:25;;;;;;;81.07;30.87;;;-1.70;99.90;;;;;;5029086;28;20205;-72
2021/12/29 04:56:14;;;;;;;83.67;32.13;;;-1.70;99.90;;;;;;5020279;28;20582;-72
2021/12/29 04:59:02;;;;;;;83.03;31.13;;;-1.70;99.90;;;;;;5017750;28;20198;-71
2021/12/29 05:01:49;;;;;;;81.33;31.47;;;-1.70;99.90;;;;;;5025760;28;20379;-72
2021/12/29 05:04:45;;;;;;;88.97;32.30;;;-1.70;99.90;;;;;;5021476;28;20202;-71
2021/12/29 05:10:39;;;;;;;78.23;31.53;;;-1.60;99.90;;;;;;5021976;28;20748;-72
2021/12/29 05:13:27;;;;;;;75.30;30.83;;;-1.60;99.90;;;;;;5028109;28;20194;-72
2021/12/29 05:16:15;;;;;;;83.93;31.37;;;-1.60;99.90;;;;;;5028663;28;20225;-71
2021/12/29 05:19:02;;;;;;;94.60;36.67;;;-1.60;99.90;;;;;;5026583;28;20194;-71
2021/12/29 05:21:50;;;;;;;97.90;35.60;;;-1.60;99.90;;;;;;5031456;28;20198;-71
2021/12/29 05:24:38;;;;;;;91.80;34.50;;;-1.60;99.90;;;;;;5031110;28;20198;-72
2021/12/29 05:27:27;;;;;;;81.90;31.90;;;-1.60;99.90;;;;;;5031114;28;20198;-72
2021/12/29 05:30:15;;;;;;;79.30;31.63;;;-1.70;99.90;;;;;;5015687;28;20696;-72
2021/12/29 05:33:02;;;;;;;79.83;32.20;;;-1.70;99.90;;;;;;5021346;28;20194;-71
2021/12/29 05:35:51;;;;;;;83.13;32.63;;;-1.70;99.90;;;;;;5031112;28;20206;-71
2021/12/29 05:38:39;;;;;;;86.20;33.43;;;-1.70;99.90;;;;;;5029267;28;20612;-72
2021/12/29 05:41:27;;;;;;;82.53;32.50;;;-1.70;99.90;;;;;;5024347;28;20620;-72
2021/12/29 05:44:16;;;;;;;90.17;32.97;;;-1.70;99.90;;;;;;5022270;28;20201;-72
2021/12/29 05:47:04;;;;;;;81.93;32.33;;;-1.70;99.90;;;;;;5028532;28;20198;-72
2021/12/29 05:49:51;;;;;;;88.33;33.07;;;-1.70;99.90;;;;;;5028636;28;20206;-72
2021/12/29 05:52:39;;;;;;;79.33;31.27;;;-1.70;99.90;;;;;;5026130;28;20210;-71
2021/12/29 05:55:27;;;;;;;80.50;31.30;;;-1.70;99.90;;;;;;5027807;28;20205;-71
2021/12/29 05:58:14;;;;;;;76.70;30.57;;;-1.70;99.90;;;;;;5020210;28;20221;-71
2021/12/29 06:01:03;;;;;;;83.67;30.97;;;-1.70;99.90;;;;;;5020763;28;20202;-72
2021/12/29 06:03:51;;;;;;;78.73;31.53;;;-1.70;99.90;;;;;;5027876;28;20201;-72
2021/12/29 06:06:38;;;;;;;92.37;32.37;;;-1.80;99.90;;;;;;5025450;28;20206;-71
2021/12/29 06:09:26;;;;;;;89.23;31.80;;;-1.70;99.90;;;;;;5028907;28;20198;-72
2021/12/29 06:12:13;;;;;;;85.40;31.13;;;-1.70;99.90;;;;;;5028892;28;20597;-71
2021/12/29 06:15:01;;;;;;;93.57;33.53;;;-1.70;99.90;;;;;;5019085;28;20198;-71
2021/12/29 06:17:50;;;;;;;85.97;32.93;;;-1.70;99.90;;;;;;5028129;28;20229;-71
2021/12/29 06:20:38;;;;;;;88.43;33.13;;;-1.70;99.90;;;;;;5029190;28;20727;-72
2021/12/29 06:23:26;;;;;;;91.77;33.80;;;-1.70;99.90;;;;;;5026849;28;20204;-71
2021/12/29 06:26:13;;;;;;;86.83;33.40;;;-1.70;99.90;;;;;;5027633;28;20205;-72
2021/12/29 06:29:01;;;;;;;87.00;34.67;;;-1.70;99.90;;;;;;5018745;28;20280;-72
2021/12/29 06:31:48;;;;;;;89.17;33.00;;;-1.70;99.90;;;;;;5028918;28;20237;-71
2021/12/29 06:34:37;;;;;;;87.03;34.00;;;-1.60;99.90;;;;;;5030037;28;20206;-71
2021/12/29 06:37:25;;;;;;;90.83;33.10;;;-1.60;99.90;;;;;;5027731;28;20221;-72
2021/12/29 06:40:13;;;;;;;84.73;32.03;;;-1.60;99.90;;;;;;5017956;28;20203;-71
2021/12/29 06:43:01;;;;;;;85.47;32.53;;;-1.60;99.90;;;;;;5013478;28;20194;-72
2021/12/29 06:45:49;;;;;;;84.33;32.13;;;-1.50;99.90;;;;;;5029476;28;20202;-71
2021/12/29 06:48:36;;;;;;;82.37;31.77;;;-1.50;99.90;;;;;;5028976;28;20198;-72
2021/12/29 06:51:25;;;;;;;76.97;31.53;;;-1.50;99.90;;;;;;5028950;28;20209;-72
2021/12/29 06:54:13;;;;;;;85.10;31.83;;;-1.50;99.90;;;;;;5028614;28;20193;-71
2021/12/29 06:57:00;;;;;;;83.70;32.97;;;-1.50;99.90;;;;;;5030087;28;20209;-71
2021/12/29 06:59:48;;;;;;;96.60;36.27;;;-1.50;99.90;;;;;;5014633;28;20202;-72
2021/12/29 07:02:36;;;;;;;92.13;35.27;;;-1.50;99.90;;;;;;5029166;28;20233;-71
2021/12/29 07:05:23;;;;;;;88.27;35.13;;;-1.50;99.90;;;;;;5029086;28;20673;-71
2021/12/29 07:08:14;;;;;;;100.87;36.87;;;-1.40;99.90;;;;;;5024955;28;20194;-72
2021/12/29 07:11:02;;;;;;;106.43;40.83;;;-1.40;99.90;;;;;;5027880;28;20224;-72
2021/12/29 07:13:51;;;;;;;105.03;39.10;;;-1.30;99.90;;;;;;5029200;28;20209;-72
2021/12/29 07:16:39;;;;;;;104.27;39.97;;;-1.30;99.90;;;;;;5020463;28;20202;-72
2021/12/29 07:19:26;;;;;;;101.23;40.10;;;-1.20;99.90;;;;;;5020679;28;20203;-72
2021/12/29 07:22:14;;;;;;;109.83;41.80;;;-1.20;99.90;;;;;;5019486;28;20581;-72
2021/12/29 07:25:03;;;;;;;91.60;35.53;;;-1.10;99.90;;;;;;5021124;28;20218;-72
2021/12/29 07:27:51;;;;;;;90.63;36.40;;;-1.10;99.90;;;;;;5017751;28;20202;-72
2021/12/29 07:30:39;;;;;;;92.13;35.57;;;-1.00;99.90;;;;;;5007786;28;20724;-72
2021/12/29 07:33:26;;;;;;;84.53;35.30;;;-1.00;99.90;;;;;;5018080;28;20214;-72
2021/12/29 07:36:14;;;;;;;81.57;34.30;;;-0.90;99.90;;;;;;5021229;28;20680;-72
2021/12/29 07:39:01;;;;;;;80.43;34.83;;;-0.90;99.90;;;;;;5023161;28;20539;-72
2021/12/29 07:41:51;;;;;;;84.30;36.00;;;-0.80;99.90;;;;;;5020606;28;20221;-72
2021/12/29 07:44:40;;;;;;;92.23;37.87;;;-0.70;99.90;;;;;;5023096;28;20308;-72
2021/12/29 07:47:27;;;;;;;95.70;39.30;;;-0.60;99.90;;;;;;5018227;28;20230;-72
2021/12/29 07:50:15;;;;;;;113.47;43.07;;;-0.60;99.90;;;;;;5013852;28;20210;-71
2021/12/29 07:53:03;;;;;;;103.73;40.30;;;-0.50;99.90;;;;;;5018827;28;20193;-72
2021/12/29 07:55:50;;;;;;;102.33;39.80;;;-0.50;99.90;;;;;;5017427;28;20272;-72
2021/12/29 07:58:40;;;;;;;86.87;34.57;;;-0.50;99.90;;;;;;5005837;28;20233;-71
2021/12/29 08:01:28;;;;;;;96.10;37.27;;;-0.50;99.90;;;;;;5013406;28;20218;-72
2021/12/29 08:04:15;;;;;;;89.40;36.23;;;-0.50;99.90;;;;;;5015965;28;20265;-72
2021/12/29 08:07:03;;;;;;;84.57;36.53;;;-0.40;99.90;;;;;;5015834;28;20280;-72
2021/12/29 08:09:51;;;;;;;107.60;39.63;;;-0.40;99.90;;;;;;5024808;28;20691;-72
2021/12/29 08:12:39;;;;;;;96.50;39.60;;;-0.40;99.90;;;;;;5014923;28;20205;-72
2021/12/29 08:15:29;;;;;;;102.00;40.20;;;-0.40;99.90;;;;;;5010880;28;20191;-72
2021/12/29 08:18:29;;;;;;;105.17;40.50;;;-0.40;99.90;;;;;;5007800;28;20218;-72
2021/12/29 08:21:16;;;;;;;109.23;40.20;;;-0.40;99.90;;;;;;5019415;28;20202;-72
2021/12/29 08:24:05;;;;;;;94.50;38.10;;;-0.30;99.90;;;;;;5010309;28;20198;-72
2021/12/29 08:27:33;;;;;;;101.53;40.10;;;-0.30;99.90;;;;;;5016211;28;20205;-72
2021/12/29 08:30:21;;;;;;;95.10;37.60;;;-0.20;99.90;;;;;;5010597;28;20300;-72
2021/12/29 08:33:10;;;;;;;92.50;36.33;;;-0.20;99.90;;;;;;5018975;28;20195;-72
2021/12/29 08:35:57;;;;;;;94.23;37.53;;;-0.10;99.90;;;;;;5020252;28;20691;-72
2021/12/29 08:39:00;;;;;;;89.40;36.87;;;0.00;99.90;;;;;;5017618;28;20222;-72
2021/12/29 08:41:48;;;;;;;86.30;36.90;;;0.10;99.90;;;;;;5000404;28;20202;-72
2021/12/29 08:44:36;;;;;;;89.77;38.40;;;0.20;99.90;;;;;;5006483;28;20213;-72
2021/12/29 08:47:23;;;;;;;94.53;38.90;;;0.30;99.90;;;;;;5004698;28;20209;-72
2021/12/29 08:50:14;;;;;;;92.43;38.07;;;0.40;99.90;;;;;;5012181;28;20673;-72
2021/12/29 08:53:03;;;;;;;92.03;39.83;;;0.50;99.90;;;;;;5016735;28;20194;-72
2021/12/29 08:55:51;;;;;;;94.87;38.97;;;0.60;99.90;;;;;;5014872;28;20735;-73
2021/12/29 08:58:39;;;;;;;98.77;41.10;;;0.80;99.90;;;;;;5023448;28;20229;-72
2021/12/29 09:01:27;;;;;;;90.93;38.53;;;0.80;99.90;;;;;;5015734;28;20199;-72
2021/12/29 09:04:15;;;;;;;106.53;41.10;;;0.90;99.90;;;;;;5016344;28;20202;-72
2021/12/29 09:07:05;;;;;;;101.27;41.50;;;0.90;99.90;;;;;;5027144;28;20205;-72
2021/12/29 09:09:52;;;;;;;102.93;44.07;;;1.00;99.90;;;;;;5018361;28;20222;-71
2021/12/29 09:12:40;;;;;;;112.93;45.50;;;1.00;99.90;;;;;;5022260;28;20210;-72
2021/12/29 09:15:28;;;;;;;105.27;45.00;;;1.00;99.90;;;;;;5024104;28;20588;-71
2021/12/29 09:18:17;;;;;;;116.83;47.07;;;1.20;99.90;;;;;;5018789;28;20231;-72
2021/12/29 09:21:07;;;;;;;113.93;45.83;;;1.20;99.90;;;;;;5026012;28;20205;-72
2021/12/29 09:23:56;;;;;;;108.60;45.27;;;1.30;99.90;;;;;;5021797;28;20202;-72
2021/12/29 09:26:44;;;;;;;108.63;43.53;;;1.30;99.90;;;;;;5025433;28;20674;-72
2021/12/29 09:29:33;;;;;;;102.17;43.37;;;1.50;99.90;;;;;;5030363;28;20201;-73
2021/12/29 09:32:21;;;;;;;124.73;44.97;;;1.50;99.90;;;;;;5030345;28;20190;-72
2021/12/29 09:35:11;;;;;;;113.33;46.17;;;1.60;99.90;;;;;;5020305;28;20201;-73
2021/12/29 09:37:58;;;;;;;121.07;48.10;;;1.70;99.90;;;;;;5019285;28;20210;-72
2021/12/29 09:40:48;;;;;;;120.97;50.73;;;1.80;99.90;;;;;;5013251;28;20200;-73
2021/12/29 09:43:36;;;;;;;141.27;55.83;;;1.90;99.90;;;;;;5024931;28;20213;-72
2021/12/29 09:46:23;;;;;;;141.43;57.17;;;2.00;99.90;;;;;;5028387;28;20581;-73
2021/12/29 09:49:11;;;;;;;201.23;76.53;;;2.10;99.90;;;;;;5026293;28;20199;-73
2021/12/29 09:51:59;;;;;;;217.57;82.70;;;2.10;99.90;;;;;;5021375;28;20344;-74
2021/12/29 09:54:46;;;;;;;212.77;82.23;;;2.20;99.90;;;;;;5018281;28;20202;-74
2021/12/29 09:57:37;;;;;;;221.77;88.07;;;2.20;99.90;;;;;;5021953;28;20213;-73
2021/12/29 10:00:26;;;;;;;167.93;69.87;;;2.20;99.90;;;;;;5029618;28;20202;-74
2021/12/29 10:03:16;;;;;;;167.57;68.10;;;2.20;99.90;;;;;;5011039;28;20212;-73
2021/12/29 10:06:04;;;;;;;159.23;64.00;;;2.10;99.90;;;;;;5026890;28;20206;-74
2021/12/29 10:08:53;;;;;;;191.40;72.10;;;2.10;99.90;;;;;;5021236;28;20195;-73
2021/12/29 10:11:41;;;;;;;188.33;72.13;;;2.10;99.90;;;;;;5023184;28;20312;-73
2021/12/29 10:14:34;;;;;;;168.90;65.97;;;2.00;99.90;;;;;;5029680;28;20584;-73
2021/12/29 10:17:25;;;;;;;156.20;61.47;;;2.00;99.90;;;;;;4996681;28;20200;-74
2021/12/29 10:20:14;;;;;;;135.77;57.13;;;2.00;99.90;;;;;;5003670;28;20222;-73
2021/12/29 10:23:02;;;;;;;132.63;55.77;;;2.00;99.90;;;;;;5006581;28;20210;-73
2021/12/29 10:25:50;;;;;;;134.87;53.97;;;2.00;99.90;;;;;;5001896;28;20274;-73
2021/12/29 10:28:40;;;;;;;129.60;52.67;;;2.00;99.90;;;;;;5001033;28;20551;-73
2021/12/29 10:31:30;;;;;;;119.40;50.43;;;2.00;99.90;;;;;;5020594;28;20245;-73
2021/12/29 10:34:23;;;;;;;106.43;45.17;;;2.10;99.90;;;;;;5021941;28;20202;-73
2021/12/29 10:37:11;;;;;;;119.10;49.53;;;2.10;99.90;;;;;;5024938;28;20202;-73
2021/12/29 10:39:59;;;;;;;119.53;49.87;;;2.10;99.90;;;;;;5029041;28;20231;-74
2021/12/29 10:42:53;;;;;;;126.10;50.53;;;2.20;99.90;;;;;;5028036;28;20194;-73
2021/12/29 10:45:42;;;;;;;119.07;50.70;;;2.40;99.90;;;;;;5018168;28;20202;-74
2021/12/29 10:48:31;;;;;;;108.00;47.27;;;2.50;99.90;;;;;;5029400;28;20689;-73
2021/12/29 10:51:19;;;;;;;111.43;46.80;;;2.70;99.90;;;;;;5029150;28;20655;-73
2021/12/29 10:54:09;;;;;;;139.23;57.70;;;2.80;99.90;;;;;;5026555;28;20616;-73
2021/12/29 10:57:02;;;;;;;147.27;59.23;;;2.90;99.90;;;;;;5015618;28;20730;-73
2021/12/29 10:59:55;;;;;;;125.83;53.30;;;3.10;99.90;;;;;;5024991;28;20236;-74
2021/12/29 11:02:43;;;;;;;121.77;53.67;;;3.30;99.90;;;;;;5013653;28;21045;-74
2021/12/29 11:05:37;;;;;;;116.83;50.43;;;3.50;99.90;;;;;;5028707;28;20205;-73
2021/12/29 11:08:25;;;;;;;126.37;52.20;;;3.50;99.90;;;;;;5025124;28;20675;-74
2021/12/29 11:11:13;;;;;;;98.43;43.80;;;3.60;99.90;;;;;;5009019;28;20605;-74
2021/12/29 11:14:08;;;;;;;102.50;43.40;;;3.60;99.90;;;;;;5017172;28;20205;-74
2021/12/29 11:17:02;;;;;;;113.73;48.73;;;3.70;99.90;;;;;;5019140;28;20201;-74
2021/12/29 11:19:54;;;;;;;115.27;51.27;;;3.70;99.90;;;;;;5018100;28;20225;-74
2021/12/29 11:22:43;;;;;;;100.03;42.83;;;3.80;99.90;;;;;;5023052;28;20914;-74
2021/12/29 11:25:31;;;;;;;96.87;42.90;;;3.80;99.90;;;;;;5027536;28;20201;-73
2021/12/29 11:28:23;;;;;;;109.93;48.67;;;3.80;99.90;;;;;;4993109;28;20806;-74
2021/12/29 11:31:12;;;;;;;111.60;50.07;;;3.90;99.90;;;;;;5003958;28;20313;-74
2021/12/29 11:34:12;;;;;;;165.57;66.97;;;3.90;99.90;;;;;;5000870;28;20206;-73
2021/12/29 11:37:01;;;;;;;158.73;66.03;;;3.90;99.90;;;;;;5000347;28;20210;-74
2021/12/29 11:39:50;;;;;;;121.57;51.17;;;3.90;99.90;;;;;;4998825;28;20690;-74
2021/12/29 11:42:38;;;;;;;107.97;45.77;;;3.80;99.90;;;;;;5018719;28;20666;-74
2021/12/29 11:45:25;;;;;;;105.43;45.27;;;3.80;99.90;;;;;;5019376;28;20214;-74
2021/12/29 11:48:14;;;;;;;97.70;35.40;;;3.60;99.90;;;;;;5022512;28;20929;-74
2021/12/29 11:51:03;;;;;;;87.50;31.97;;;3.60;99.90;;;;;;5021974;28;20202;-73
2021/12/29 11:53:54;;;;;;;62.33;27.43;;;3.50;99.90;;;;;;5029033;28;20206;-73
2021/12/29 11:56:43;;;;;;;66.30;28.20;;;3.40;99.90;;;;;;5022565;28;20292;-73
2021/12/29 11:59:31;;;;;;;61.47;26.30;;;3.50;99.90;;;;;;5025576;28;20226;-73
2021/12/29 12:02:24;;;;;;;62.00;26.67;;;3.40;99.90;;;;;;5021316;28;20222;-74
2021/12/29 12:05:13;;;;;;;58.67;24.93;;;3.40;99.90;;;;;;5015620;28;20206;-74
2021/12/29 12:08:06;;;;;;;59.03;25.50;;;3.40;99.90;;;;;;5022550;28;20205;-73
2021/12/29 12:10:54;;;;;;;52.50;24.60;;;3.50;99.90;;;;;;5005658;28;20301;-73
2021/12/29 12:13:44;;;;;;;53.33;24.17;;;3.50;99.90;;;;;;5014823;28;20191;-73
2021/12/29 12:16:32;;;;;;;51.37;23.03;;;3.60;99.90;;;;;;5025293;28;20205;-73
2021/12/29 12:19:20;;;;;;;50.37;22.00;;;3.50;99.90;;;;;;5017199;28;20329;-72
2021/12/29 12:22:09;;;;;;;51.50;22.40;;;3.40;99.90;;;;;;5013496;28;20198;-73
2021/12/29 12:24:58;;;;;;;52.30;21.90;;;3.40;99.90;;;;;;5023432;28;20283;-73
2021/12/29 12:27:50;;;;;;;56.67;22.53;;;3.40;99.90;;;;;;5015126;28;20202;-73
2021/12/29 12:30:41;;;;;;;48.53;21.47;;;3.40;99.90;;;;;;5025495;28;20230;-72
2021/12/29 12:33:29;;;;;;;53.47;21.70;;;3.30;99.90;;;;;;5026808;28;20732;-73
2021/12/29 12:36:17;;;;;;;57.37;22.10;;;3.30;99.90;;;;;;5021640;28;20204;-73
2021/12/29 12:39:11;;;;;;;57.87;22.67;;;3.30;99.90;;;;;;5024515;28;20571;-73
2021/12/29 12:41:59;;;;;;;47.70;21.50;;;3.20;99.90;;;;;;5019017;28;20672;-74
2021/12/29 12:44:47;;;;;;;49.03;21.63;;;3.20;99.90;;;;;;5003181;28;20210;-72
2021/12/29 12:47:38;;;;;;;50.53;21.60;;;3.20;99.90;;;;;;5023728;28;20205;-71
2021/12/29 12:50:27;;;;;;;57.23;22.23;;;3.20;99.90;;;;;;5028983;28;20201;-69
2021/12/29 12:53:16;;;;;;;51.67;21.30;;;3.20;99.90;;;;;;5020083;28;20257;-70
2021/12/29 12:56:05;;;;;;;54.30;22.77;;;3.30;99.90;;;;;;5001836;28;20665;-69
2021/12/29 12:58:56;;;;;;;51.40;21.30;;;3.40;99.90;;;;;;5000269;28;20219;-70
2021/12/29 13:01:46;;;;;;;53.97;23.13;;;3.60;99.90;;;;;;5012628;28;20280;-70
2021/12/29 13:04:35;;;;;;;51.43;22.47;;;3.70;99.90;;;;;;5012636;28;20662;-70
2021/12/29 13:07:23;;;;;;;45.10;20.33;;;3.80;99.90;;;;;;5012532;28;20213;-70
2021/12/29 13:10:12;;;;;;;51.17;21.10;;;3.90;99.90;;;;;;5011037;28;20218;-72
2021/12/29 13:13:02;;;;;;;47.50;20.83;;;3.80;99.90;;;;;;5012193;28;20328;-72
2021/12/29 13:15:51;;;;;;;49.87;21.70;;;3.60;99.90;;;;;;5012846;28;20198;-72
2021/12/29 13:18:39;;;;;;;56.87;23.70;;;3.50;99.90;;;;;;5001495;28;20574;-72
2021/12/29 13:21:29;;;;;;;58.33;24.77;;;3.40;99.90;;;;;;5001740;28;20301;-72
2021/12/29 13:24:16;;;;;;;61.83;24.57;;;3.40;99.90;;;;;;5010538;28;20206;-71
2021/12/29 13:27:04;;;;;;;56.63;24.63;;;3.80;99.90;;;;;;5018579;28;20201;-72
2021/12/29 13:29:58;;;;;;;62.83;26.27;;;4.00;99.90;;;;;;5013132;28;20231;-71
2021/12/29 13:32:50;;;;;;;60.20;26.93;;;4.60;99.90;;;;;;5026613;28;20198;-72
2021/12/29 13:35:39;;;;;;;60.67;26.57;;;6.10;99.90;;;;;;5024101;28;20198;-72
2021/12/29 13:38:31;;;;;;;58.27;24.47;;;7.20;99.90;;;;;;5010465;28;20284;-73
2021/12/29 13:41:20;;;;;;;60.30;27.77;;;8.10;99.90;;;;;;5009747;28;20256;-72
2021/12/29 13:44:08;;;;;;;59.97;27.07;;;8.30;99.90;;;;;;5013215;28;20199;-72
2021/12/29 13:46:56;;;;;;;62.70;28.50;;;8.70;99.90;;;;;;5012922;28;20199;-73
2021/12/29 13:49:44;;;;;;;63.00;28.20;;;9.30;99.90;;;;;;5012957;28;20276;-72
2021/12/29 13:52:32;;;;;;;63.97;28.63;;;9.50;99.90;;;;;;5012198;28;20205;-72
2021/12/29 13:55:30;;;;;;;62.60;29.03;;;9.40;99.90;;;;;;5024803;28;20680;-72
2021/12/29 13:58:17;;;;;;;61.87;29.50;;;9.70;99.90;;;;;;5022764;28;20217;-72
2021/12/29 14:01:05;;;;;;;63.30;30.83;;;9.80;99.90;;;;;;5015643;28;20626;-72
2021/12/29 14:03:53;;;;;;;64.67;30.37;;;10.00;99.90;;;;;;5021990;28;20287;-72
2021/12/29 14:06:41;;;;;;;68.90;31.47;;;9.70;95.40;;;;;;5018037;28;20299;-72
2021/12/29 14:09:29;;;;;;;63.20;29.77;;;9.80;99.90;;;;;;5013951;28;20203;-72
2021/12/29 14:12:20;;;;;;;66.60;31.57;;;9.80;99.90;;;;;;5008165;28;20240;-72
2021/12/29 14:15:16;;;;;;;72.30;32.03;;;9.70;99.90;;;;;;5031556;28;20194;-71
2021/12/29 14:18:17;;;;;;;71.60;32.13;;;9.50;99.90;;;;;;5022892;28;20216;-72
2021/12/29 14:21:13;;;;;;;73.43;33.10;;;9.00;99.90;;;;;;5021832;28;20840;-72